createdAt,value
2019-03-03T00:02:19.627Z,12.80
2019-03-03T00:05:10.275Z,11.50
2019-03-03T00:08:01.199Z,11.50
2019-03-03T00:10:52.740Z,12.57
2019-03-03T00:13:43.399Z,11.20
2019-03-03T00:16:33.161Z,9.93
2019-03-03T00:19:22.618Z,10.77
2019-03-03T00:22:14.422Z,11.63
2019-03-03T00:25:05.861Z,11.43
2019-03-03T00:27:55.686Z,12.97
2019-03-03T00:30:45.722Z,10.87
2019-03-03T00:33:36.960Z,12.33
2019-03-03T00:36:28.559Z,12.07
2019-03-03T00:39:37.713Z,12.20
2019-03-03T00:42:39.540Z,12.00
2019-03-03T00:45:51.399Z,12.10
2019-03-03T00:49:01.139Z,12.03
2019-03-03T00:52:05.741Z,12.93
2019-03-03T00:55:21.296Z,12.10
2019-03-03T00:58:20.648Z,14.80
2019-03-03T01:01:38.803Z,11.87
2019-03-03T01:04:44.761Z,13.37
2019-03-03T01:08:06.339Z,14.57
2019-03-03T01:11:06.711Z,13.50
2019-03-03T01:14:06.218Z,13.70
2019-03-03T01:17:33.779Z,13.13
2019-03-03T01:20:29.784Z,11.77
2019-03-03T01:23:33.042Z,14.20
2019-03-03T01:26:23.575Z,12.77
2019-03-03T01:29:14.033Z,11.93
2019-03-03T01:32:05.054Z,11.83
2019-03-03T01:34:56.601Z,12.93
2019-03-03T01:37:46.607Z,12.73
2019-03-03T01:40:37.360Z,13.37
2019-03-03T01:43:27.339Z,12.77
2019-03-03T01:46:17.485Z,12.57
2019-03-03T01:49:08.420Z,13.73
2019-03-03T01:51:58.598Z,13.63
2019-03-03T01:54:48.734Z,10.97
2019-03-03T01:57:39.319Z,11.87
2019-03-03T02:00:30.040Z,11.67
2019-03-03T02:03:19.880Z,11.73
2019-03-03T02:06:10.481Z,11.10
2019-03-03T02:09:00.899Z,11.13
2019-03-03T02:11:52.526Z,11.30
2019-03-03T02:14:44.422Z,11.67
2019-03-03T02:17:34.741Z,11.07
2019-03-03T02:20:25.001Z,12.63
2019-03-03T02:23:15.399Z,10.73
2019-03-03T02:26:05.813Z,10.83
2019-03-03T02:28:56.919Z,10.57
2019-03-03T02:31:47.122Z,10.53
2019-03-03T02:34:37.259Z,11.20
2019-03-03T02:37:27.133Z,10.63
2019-03-03T02:40:18.814Z,12.07
2019-03-03T02:43:09.041Z,12.27
2019-03-03T02:45:59.600Z,11.67
2019-03-03T02:48:50.381Z,11.80
2019-03-03T02:51:41.041Z,12.27
2019-03-03T02:54:31.927Z,11.23
2019-03-03T02:57:22.803Z,10.90
2019-03-03T03:03:55.136Z,10.20
2019-03-03T03:07:11.339Z,8.93
2019-03-03T03:10:24.265Z,10.23
2019-03-03T03:13:26.774Z,10.60
2019-03-03T03:16:51.156Z,9.67
2019-03-03T03:19:58.974Z,10.53
2019-03-03T03:23:05.955Z,9.20
2019-03-03T03:26:06.346Z,9.63
2019-03-03T03:29:15.121Z,10.43
2019-03-03T03:32:30.675Z,10.03
2019-03-03T03:35:46.875Z,10.63
2019-03-03T03:38:56.898Z,10.47
2019-03-03T03:42:24.258Z,10.13
2019-03-03T03:45:41.813Z,10.77
2019-03-03T03:48:57.252Z,10.47
2019-03-03T03:52:06.674Z,10.33
2019-03-03T03:55:15.273Z,10.43
2019-03-03T03:58:43.514Z,9.63
2019-03-03T04:01:51.595Z,10.40
2019-03-03T04:04:50.176Z,10.43
2019-03-03T04:08:03.044Z,9.20
2019-03-03T04:11:09.633Z,9.97
2019-03-03T04:14:28.097Z,11.03
2019-03-03T04:17:32.114Z,9.60
2019-03-03T04:20:40.654Z,9.17
2019-03-03T04:24:02.494Z,8.83
2019-03-03T04:27:02.037Z,8.87
2019-03-03T04:30:10.835Z,9.03
2019-03-03T04:33:14.839Z,8.83
2019-03-03T04:36:19.454Z,7.50
2019-03-03T04:39:19.296Z,10.70
2019-03-03T04:42:28.445Z,8.70
2019-03-03T04:45:33.394Z,8.20
2019-03-03T04:48:41.551Z,10.60
2019-03-03T04:51:45.534Z,10.43
2019-03-03T04:54:58.154Z,8.73
2019-03-03T04:58:13.813Z,8.33
2019-03-03T05:01:24.473Z,8.70
2019-03-03T05:04:25.247Z,7.77
2019-03-03T05:07:47.818Z,8.23
2019-03-03T05:11:04.934Z,8.33
2019-03-03T05:14:08.173Z,8.57
2019-03-03T05:17:14.677Z,8.47
2019-03-03T05:20:05.694Z,8.30
2019-03-03T05:22:56.173Z,8.97
2019-03-03T05:25:46.294Z,7.30
2019-03-03T05:28:38.013Z,9.57
2019-03-03T05:31:29.425Z,9.23
2019-03-03T05:34:20.414Z,9.40
2019-03-03T05:37:11.478Z,8.13
2019-03-03T05:40:02.174Z,8.90
2019-03-03T05:42:52.616Z,8.37
2019-03-03T05:45:43.297Z,8.03
2019-03-03T05:48:34.175Z,8.77
2019-03-03T05:51:24.173Z,8.60
2019-03-03T05:54:14.374Z,8.87
2019-03-03T05:57:05.534Z,8.10
2019-03-03T05:59:56.414Z,8.50
2019-03-03T06:02:46.099Z,7.53
2019-03-03T06:05:37.214Z,8.40
2019-03-03T06:08:27.773Z,10.70
2019-03-03T06:11:18.174Z,9.03
2019-03-03T06:14:08.893Z,8.43
2019-03-03T06:16:59.454Z,8.20
2019-03-03T06:19:50.974Z,8.43
2019-03-03T06:22:41.536Z,8.43
2019-03-03T06:25:32.735Z,7.40
2019-03-03T06:28:23.294Z,8.40
2019-03-03T06:31:14.174Z,7.43
2019-03-03T06:34:04.240Z,7.33
2019-03-03T06:36:55.459Z,8.07
2019-03-03T06:39:46.175Z,5.93
2019-03-03T06:42:37.053Z,6.57
2019-03-03T06:45:27.936Z,7.00
2019-03-03T06:48:20.093Z,6.13
2019-03-03T06:51:10.674Z,5.70
2019-03-03T06:54:02.215Z,5.40
2019-03-03T06:56:53.053Z,5.17
2019-03-03T06:59:43.617Z,5.20
2019-03-03T07:02:33.233Z,3.93
2019-03-03T07:05:23.537Z,4.03
2019-03-03T07:08:13.973Z,3.10
2019-03-03T07:11:04.334Z,3.73
2019-03-03T07:13:54.201Z,3.63
2019-03-03T07:16:45.655Z,4.17
2019-03-03T07:19:36.574Z,3.93
2019-03-03T07:22:27.094Z,3.97
2019-03-03T07:25:18.655Z,3.23
2019-03-03T07:28:09.856Z,2.93
2019-03-03T07:31:01.372Z,3.10
2019-03-03T07:33:55.455Z,3.10
2019-03-03T07:36:50.813Z,3.07
2019-03-03T07:39:41.375Z,2.50
2019-03-03T07:42:33.763Z,2.97
2019-03-03T07:45:24.213Z,2.17
2019-03-03T07:48:14.965Z,3.03
2019-03-03T07:51:05.856Z,3.10
2019-03-03T07:53:56.315Z,2.63
2019-03-03T07:56:46.654Z,3.00
2019-03-03T07:59:36.921Z,2.97
2019-03-03T08:02:27.776Z,3.30
2019-03-03T08:05:18.674Z,2.77
2019-03-03T08:08:09.394Z,2.73
2019-03-03T08:11:00.294Z,2.50
2019-03-03T08:13:51.856Z,2.00
2019-03-03T08:16:42.397Z,2.87
2019-03-03T08:19:33.374Z,2.53
2019-03-03T08:22:24.254Z,2.43
2019-03-03T08:25:15.154Z,2.40
2019-03-03T08:28:11.773Z,2.37
2019-03-03T08:31:01.613Z,2.20
2019-03-03T08:33:51.613Z,2.10
2019-03-03T08:36:42.494Z,2.10
2019-03-03T08:39:34.653Z,3.60
2019-03-03T08:42:46.355Z,12.43
2019-03-03T08:45:54.212Z,5.37
2019-03-03T08:48:50.168Z,2.83
2019-03-03T08:51:51.634Z,2.07
2019-03-03T08:55:19.294Z,2.10
2019-03-03T08:58:19.775Z,2.03
2019-03-03T09:01:28.774Z,0.90
2019-03-03T09:04:32.893Z,1.40
2019-03-03T09:07:45.853Z,1.47
2019-03-03T09:10:54.454Z,1.53
2019-03-03T09:14:12.414Z,1.40
2019-03-03T09:17:10.502Z,1.10
2019-03-03T09:20:25.595Z,1.47
2019-03-03T09:23:52.577Z,1.50
2019-03-03T09:27:05.213Z,1.23
2019-03-03T09:30:12.373Z,1.40
2019-03-03T09:33:12.274Z,1.27
2019-03-03T09:36:36.554Z,1.33
2019-03-03T09:39:44.253Z,1.60
2019-03-03T09:42:44.101Z,0.80
2019-03-03T09:45:40.574Z,1.47
2019-03-03T09:48:52.414Z,1.30
2019-03-03T09:51:50.016Z,1.00
2019-03-03T09:54:56.753Z,1.17
2019-03-03T09:58:09.268Z,1.80
2019-03-03T10:01:11.979Z,1.10
2019-03-03T10:04:23.934Z,1.10
2019-03-03T10:07:24.987Z,0.67
2019-03-03T10:10:24.194Z,0.43
2019-03-03T10:13:35.996Z,0.83
2019-03-03T10:16:54.888Z,0.83
2019-03-03T10:20:01.535Z,0.70
2019-03-03T10:23:06.399Z,0.73
2019-03-03T10:26:14.593Z,0.30
2019-03-03T10:29:24.947Z,0.80
2019-03-03T10:32:46.653Z,0.80
2019-03-03T10:35:51.055Z,0.67
2019-03-03T10:38:53.794Z,0.30
2019-03-03T10:42:15.998Z,0.60
2019-03-03T10:45:29.076Z,0.28
2019-03-03T10:48:47.298Z,0.20
2019-03-03T10:52:00.576Z,0.53
2019-03-03T10:55:07.919Z,0.40
2019-03-03T10:58:09.534Z,0.35
2019-03-03T11:01:18.214Z,0.47
2019-03-03T11:04:25.957Z,0.20
2019-03-03T11:07:42.673Z,0.35
2019-03-03T11:10:57.606Z,0.20
2019-03-03T11:13:53.957Z,0.30
2019-03-03T11:17:03.093Z,0.20
2019-03-03T11:20:03.673Z,0.45
2019-03-03T11:23:13.915Z,0.42
2019-03-03T11:26:22.035Z,0.30
2019-03-03T11:29:31.253Z,0.20
2019-03-03T11:32:37.693Z,0.28
2019-03-03T11:35:44.887Z,0.25
2019-03-03T11:39:01.056Z,0.10
2019-03-03T11:41:58.409Z,0.20
2019-03-03T11:45:10.654Z,0.30
2019-03-03T11:48:09.855Z,0.10
2019-03-03T11:51:08.779Z,0.10
2019-03-03T11:54:26.675Z,0.20
2019-03-03T11:57:34.335Z,0.20
2019-03-03T12:00:51.194Z,0.08
2019-03-03T12:03:59.757Z,0.23
2019-03-03T12:06:56.895Z,0.15
2019-03-03T12:10:05.395Z,0.20
2019-03-03T12:13:29.874Z,0.10
2019-03-03T12:16:44.133Z,0.28
2019-03-03T12:20:23.719Z,0.13
2019-03-03T12:23:35.995Z,0.20
2019-03-03T12:26:44.907Z,0.20
2019-03-03T12:30:12.733Z,0.30
2019-03-03T12:33:18.694Z,0.37
2019-03-03T12:36:27.193Z,0.20
2019-03-03T12:39:22.815Z,0.30
2019-03-03T12:42:29.654Z,0.30
2019-03-03T12:45:32.454Z,0.33
2019-03-03T12:48:40.395Z,0.17
2019-03-03T12:51:53.596Z,0.30
2019-03-03T12:55:07.016Z,0.20
2019-03-03T12:58:35.175Z,0.20
2019-03-03T13:01:56.955Z,0.23
2019-03-03T13:05:05.353Z,0.10
2019-03-03T13:08:13.457Z,0.20
2019-03-03T13:11:19.593Z,0.10
2019-03-03T13:14:40.894Z,0.10
2019-03-03T13:17:47.750Z,0.15
2019-03-03T13:20:58.893Z,0.10
2019-03-03T13:24:20.588Z,0.30
2019-03-03T13:27:32.473Z,0.37
2019-03-03T13:30:50.894Z,0.20
2019-03-03T13:33:59.295Z,0.28
2019-03-03T13:37:07.344Z,0.30
2019-03-03T13:40:10.254Z,0.30
2019-03-03T13:43:01.794Z,0.30
2019-03-03T13:45:52.894Z,0.10
2019-03-03T13:48:44.290Z,0.13
2019-03-03T13:51:34.975Z,0.40
2019-03-03T13:54:25.853Z,1.80
2019-03-03T13:57:16.734Z,1.60
2019-03-03T14:00:07.835Z,1.63
2019-03-03T14:02:58.094Z,2.43
2019-03-03T14:05:48.759Z,1.80
2019-03-03T14:08:41.215Z,2.33
2019-03-03T14:11:32.734Z,2.40
2019-03-03T14:14:23.816Z,1.97
2019-03-03T14:17:14.499Z,1.80
2019-03-03T14:20:07.353Z,2.40
2019-03-03T14:22:58.965Z,2.43
2019-03-03T14:25:50.034Z,2.23
2019-03-03T14:28:40.913Z,1.80
2019-03-03T14:31:31.454Z,2.00
2019-03-03T14:34:22.334Z,1.90
2019-03-03T14:37:12.613Z,2.60
2019-03-03T14:40:03.298Z,2.60
2019-03-03T14:42:55.934Z,2.60
2019-03-03T14:45:46.833Z,2.60
2019-03-03T14:48:38.174Z,2.83
2019-03-03T14:51:28.894Z,2.70
2019-03-03T14:54:19.495Z,3.03
2019-03-03T14:57:11.295Z,3.00
2019-03-03T15:00:01.873Z,3.13
2019-03-03T15:02:53.695Z,3.60
2019-03-03T15:05:44.581Z,5.33
2019-03-03T15:08:35.815Z,5.53
2019-03-03T15:11:26.334Z,6.60
2019-03-03T15:14:17.214Z,8.43
2019-03-03T15:17:08.096Z,7.13
2019-03-03T15:19:59.360Z,6.40
2019-03-03T15:22:50.174Z,7.33
2019-03-03T15:25:40.733Z,6.60
2019-03-03T15:28:31.648Z,4.70
2019-03-03T15:31:21.857Z,4.47
2019-03-03T15:34:12.733Z,4.00
2019-03-03T15:37:04.174Z,4.17
2019-03-03T15:39:54.814Z,4.40
2019-03-03T15:42:46.335Z,4.07
2019-03-03T15:45:37.673Z,4.63
2019-03-03T15:48:27.993Z,3.60
2019-03-03T15:51:18.174Z,4.37
2019-03-03T15:54:08.914Z,4.50
2019-03-03T15:57:00.093Z,5.97
2019-03-03T15:59:51.396Z,5.37
2019-03-03T16:02:42.813Z,5.13
2019-03-03T16:05:34.674Z,6.20
2019-03-03T16:08:25.174Z,6.07
2019-03-03T16:11:16.413Z,6.57
2019-03-03T16:14:07.314Z,5.00
2019-03-03T16:16:58.504Z,5.50
2019-03-03T16:19:49.233Z,6.60
2019-03-03T16:22:40.262Z,10.10
2019-03-03T16:25:30.990Z,8.40
2019-03-03T16:28:21.715Z,7.50
2019-03-03T16:31:13.009Z,7.33
2019-03-03T16:34:04.121Z,8.67
2019-03-03T16:36:55.933Z,7.83
2019-03-03T16:39:46.674Z,9.37
2019-03-03T16:42:37.434Z,10.13
2019-03-03T16:45:28.459Z,8.30
2019-03-03T16:48:18.933Z,9.80
2019-03-03T16:51:09.696Z,9.53
2019-03-03T16:54:00.934Z,10.50
2019-03-03T16:56:52.120Z,6.87
2019-03-03T16:59:42.337Z,5.87
2019-03-03T17:02:33.094Z,6.50
2019-03-03T17:05:23.618Z,6.50
2019-03-03T17:08:14.016Z,5.67
2019-03-03T17:11:05.535Z,6.30
2019-03-03T17:13:55.970Z,6.43
2019-03-03T17:16:46.197Z,6.77
2019-03-03T17:19:36.274Z,6.93
2019-03-03T17:22:26.654Z,6.67
2019-03-03T17:25:19.341Z,7.13
2019-03-03T17:28:12.386Z,6.20
2019-03-03T17:31:02.714Z,6.27
2019-03-03T17:33:52.633Z,6.27
2019-03-03T17:36:43.141Z,6.33
2019-03-03T17:39:34.355Z,5.70
2019-03-03T17:42:25.553Z,4.67
2019-03-03T17:45:18.675Z,6.33
2019-03-03T17:48:09.460Z,5.83
2019-03-03T17:51:00.100Z,5.60
2019-03-03T17:53:50.338Z,4.80
2019-03-03T17:56:41.214Z,5.43
2019-03-03T17:59:33.054Z,5.70
2019-03-03T18:02:24.273Z,5.77
2019-03-03T18:05:16.134Z,6.27
2019-03-03T18:08:06.977Z,5.93
2019-03-03T18:10:57.853Z,5.77
2019-03-03T18:13:48.494Z,5.80
2019-03-03T18:16:40.300Z,5.77
2019-03-03T18:19:31.477Z,8.83
2019-03-03T18:22:22.356Z,8.57
2019-03-03T18:25:13.775Z,5.93
2019-03-03T18:28:04.453Z,6.80
2019-03-03T18:30:55.615Z,6.83
2019-03-03T18:33:46.499Z,6.57
2019-03-03T18:36:37.954Z,7.70
2019-03-03T18:39:28.975Z,7.60
2019-03-03T18:42:21.055Z,6.30
2019-03-03T18:45:12.955Z,6.67
2019-03-03T18:48:03.392Z,6.27
2019-03-03T18:50:54.353Z,6.00
2019-03-03T18:53:45.214Z,5.87
2019-03-03T18:56:36.096Z,6.63
2019-03-03T18:59:26.656Z,6.60
2019-03-03T19:02:17.234Z,7.33
2019-03-03T19:05:08.734Z,6.37
2019-03-03T19:07:59.980Z,6.13
2019-03-03T19:10:55.614Z,7.70
2019-03-03T19:13:46.288Z,8.27
2019-03-03T19:16:36.635Z,8.33
2019-03-03T19:19:28.595Z,7.50
2019-03-03T19:22:19.796Z,8.67
2019-03-03T19:25:11.854Z,8.10
2019-03-03T19:28:02.974Z,9.27
2019-03-03T19:30:53.932Z,8.80
2019-03-03T19:33:51.322Z,9.43
2019-03-03T19:36:42.214Z,9.77
2019-03-03T19:39:33.380Z,10.00
2019-03-03T19:42:24.176Z,9.80
2019-03-03T19:45:18.998Z,9.60
2019-03-03T19:48:10.436Z,10.80
2019-03-03T19:51:00.579Z,9.67
2019-03-03T19:53:51.935Z,9.23
2019-03-03T19:56:42.354Z,9.27
2019-03-03T19:59:32.375Z,9.17
2019-03-03T20:02:22.994Z,8.90
2019-03-03T20:05:14.174Z,9.80
2019-03-03T20:08:05.415Z,8.90
2019-03-03T20:10:56.254Z,9.70
2019-03-03T20:13:47.974Z,9.73
2019-03-03T20:16:38.034Z,8.73
2019-03-03T20:19:29.613Z,8.23
2019-03-03T20:22:20.738Z,8.53
2019-03-03T20:25:12.314Z,8.63
2019-03-03T20:28:03.214Z,8.83
2019-03-03T20:30:58.175Z,7.87
2019-03-03T20:33:49.283Z,17.37
2019-03-03T20:36:40.913Z,15.57
2019-03-03T20:39:31.493Z,12.10
2019-03-03T20:42:22.353Z,10.63
2019-03-03T20:45:15.456Z,9.07
2019-03-03T20:48:07.314Z,7.90
2019-03-03T20:50:58.693Z,7.00
2019-03-03T20:53:49.795Z,7.07
2019-03-03T20:56:40.934Z,5.57
2019-03-03T20:59:31.474Z,5.83
2019-03-03T21:02:22.715Z,4.40
2019-03-03T21:05:13.027Z,4.30
2019-03-03T21:08:04.440Z,3.80
2019-03-03T21:10:55.355Z,4.30
2019-03-03T21:13:46.234Z,3.80
2019-03-03T21:16:36.736Z,3.57
2019-03-03T21:19:28.578Z,3.30
2019-03-03T21:22:19.774Z,4.40
2019-03-03T21:25:11.294Z,3.77
2019-03-03T21:28:05.055Z,3.63
2019-03-03T21:30:56.254Z,3.20
2019-03-03T21:33:47.475Z,4.07
2019-03-03T21:36:38.207Z,4.03
2019-03-03T21:39:29.855Z,4.40
2019-03-03T21:42:20.774Z,4.20
2019-03-03T21:45:13.235Z,4.10
2019-03-03T21:48:04.770Z,3.93
2019-03-03T21:50:55.276Z,4.60
2019-03-03T21:53:46.056Z,4.80
2019-03-03T21:56:36.454Z,4.33
2019-03-03T21:59:27.613Z,4.53
2019-03-03T22:02:18.474Z,4.73
2019-03-03T22:05:13.313Z,4.83
2019-03-03T22:08:03.853Z,4.03
2019-03-03T22:10:54.545Z,4.00
2019-03-03T22:13:46.174Z,4.03
2019-03-03T22:16:36.355Z,3.83
2019-03-03T22:19:26.975Z,3.87
2019-03-03T22:22:17.764Z,4.50
2019-03-03T22:25:09.074Z,4.73
2019-03-03T22:28:00.633Z,5.53
2019-03-03T22:30:51.454Z,5.30
2019-03-03T22:33:42.696Z,5.07
2019-03-03T22:36:33.274Z,4.97
2019-03-03T22:39:24.413Z,4.53
2019-03-03T22:42:15.295Z,4.10
2019-03-03T22:45:07.854Z,4.27
2019-03-03T22:47:58.975Z,4.60
2019-03-03T22:50:49.855Z,8.20
2019-03-03T22:53:41.076Z,7.23
2019-03-03T22:56:32.015Z,9.13
2019-03-03T22:59:23.134Z,11.33
2019-03-03T23:02:14.360Z,7.83
2019-03-03T23:05:22.951Z,8.13
2019-03-03T23:08:28.694Z,10.57
2019-03-03T23:11:53.677Z,24.53
2019-03-03T23:15:14.513Z,19.60
2019-03-03T23:18:40.620Z,13.40
2019-03-03T23:21:54.275Z,8.47
2019-03-03T23:25:35.656Z,5.73
2019-03-03T23:28:27.458Z,4.03
2019-03-03T23:31:18.016Z,3.83
2019-03-03T23:34:09.280Z,3.33
2019-03-03T23:36:59.776Z,4.40
2019-03-03T23:39:51.315Z,3.63
2019-03-03T23:42:41.934Z,3.60
2019-03-03T23:45:33.056Z,3.70
2019-03-03T23:48:23.935Z,3.37
2019-03-03T23:51:14.541Z,3.33
2019-03-03T23:54:05.374Z,3.50
2019-03-03T23:56:57.253Z,3.20
2019-03-03T23:59:48.095Z,2.60
